createdAt,value
2018-05-25T00:01:34.566Z,90.20
2018-05-25T00:04:02.954Z,90.30
2018-05-25T00:06:30.550Z,90.30
2018-05-25T00:08:58.156Z,90.40
2018-05-25T00:11:26.517Z,90.50
2018-05-25T00:13:54.119Z,90.50
2018-05-25T00:16:21.718Z,90.50
2018-05-25T00:18:49.330Z,90.50
2018-05-25T00:21:16.926Z,90.50
2018-05-25T00:23:44.539Z,90.40
2018-05-25T00:26:12.931Z,90.40
2018-05-25T00:28:40.542Z,90.30
2018-05-25T00:31:08.910Z,90.40
2018-05-25T00:33:36.518Z,90.40
2018-05-25T00:36:04.125Z,90.50
2018-05-25T00:38:31.746Z,90.40
2018-05-25T00:40:59.346Z,90.40
2018-05-25T00:43:26.946Z,90.40
2018-05-25T00:45:55.315Z,90.40
2018-05-25T00:48:23.676Z,90.30
2018-05-25T00:50:51.296Z,90.30
2018-05-25T00:53:18.900Z,90.30
2018-05-25T00:55:46.520Z,90.20
2018-05-25T00:58:14.125Z,90.20
2018-05-25T01:00:42.522Z,90.50
2018-05-25T01:03:10.910Z,90.50
2018-05-25T01:05:38.503Z,90.50
2018-05-25T01:08:06.102Z,90.50
2018-05-25T01:10:34.471Z,90.40
2018-05-25T01:13:02.078Z,90.40
2018-05-25T01:15:29.666Z,90.50
2018-05-25T01:17:57.287Z,90.60
2018-05-25T01:20:24.902Z,90.80
2018-05-25T01:22:52.509Z,90.80
2018-05-25T01:25:20.114Z,90.70
2018-05-25T01:27:47.706Z,90.70
2018-05-25T01:30:16.079Z,90.90
2018-05-25T01:32:44.458Z,90.90
2018-05-25T01:35:12.838Z,91.30
2018-05-25T01:37:41.215Z,90.90
2018-05-25T01:40:09.586Z,90.90
2018-05-25T01:42:37.945Z,90.90
2018-05-25T01:45:05.554Z,90.90
2018-05-25T01:47:33.165Z,91.00
2018-05-25T01:50:00.757Z,91.00
2018-05-25T01:52:29.127Z,91.10
2018-05-25T01:54:57.494Z,91.10
2018-05-25T01:57:25.869Z,91.20
2018-05-25T01:59:53.461Z,91.20
2018-05-25T02:02:21.073Z,91.20
2018-05-25T02:04:48.687Z,91.10
2018-05-25T02:07:16.290Z,91.10
2018-05-25T02:09:44.658Z,91.30
2018-05-25T02:12:12.250Z,91.30
2018-05-25T02:14:40.618Z,91.50
2018-05-25T02:17:08.219Z,91.50
2018-05-25T02:19:35.826Z,91.60
2018-05-25T02:22:03.463Z,91.70
2018-05-25T02:24:31.080Z,91.70
2018-05-25T02:26:59.454Z,91.80
2018-05-25T02:29:27.814Z,91.80
2018-05-25T02:31:55.419Z,91.70
2018-05-25T02:34:23.022Z,91.80
2018-05-25T02:36:50.639Z,91.60
2018-05-25T02:39:18.252Z,91.20
2018-05-25T02:41:46.634Z,91.10
2018-05-25T02:44:15.016Z,91.00
2018-05-25T02:46:43.382Z,91.30
2018-05-25T02:49:10.989Z,91.30
2018-05-25T02:51:38.584Z,91.50
2018-05-25T02:54:06.203Z,92.10
2018-05-25T02:56:33.814Z,91.70
2018-05-25T02:59:01.410Z,91.80
2018-05-25T03:01:29.006Z,92.20
2018-05-25T03:03:56.612Z,92.50
2018-05-25T03:06:24.983Z,92.40
2018-05-25T03:08:53.350Z,92.30
2018-05-25T03:11:20.979Z,92.30
2018-05-25T03:13:48.574Z,92.20
2018-05-25T03:16:16.178Z,91.90
2018-05-25T03:18:43.774Z,91.80
2018-05-25T03:21:11.381Z,91.70
2018-05-25T03:23:38.982Z,91.50
2018-05-25T03:26:06.583Z,91.30
2018-05-25T03:28:34.981Z,91.10
2018-05-25T03:31:02.591Z,91.10
2018-05-25T03:33:31.709Z,90.80
2018-05-25T03:36:00.082Z,90.70
2018-05-25T03:38:28.466Z,90.60
2018-05-25T03:40:56.068Z,90.50
2018-05-25T03:43:23.682Z,90.50
2018-05-25T03:45:52.059Z,90.40
2018-05-25T03:48:19.707Z,90.30
2018-05-25T03:50:47.333Z,90.40
2018-05-25T03:53:14.963Z,90.40
2018-05-25T03:55:42.580Z,90.40
2018-05-25T03:58:10.218Z,90.40
2018-05-25T04:00:49.630Z,90.40
2018-05-25T04:03:17.234Z,90.40
2018-05-25T04:05:44.858Z,90.40
2018-05-25T04:08:12.472Z,90.30
2018-05-25T04:10:40.854Z,90.30
2018-05-25T04:13:08.487Z,90.20
2018-05-25T04:15:36.107Z,90.20
2018-05-25T04:18:03.734Z,90.10
2018-05-25T04:20:32.106Z,89.70
2018-05-25T04:22:59.732Z,89.60
2018-05-25T04:25:27.339Z,89.70
2018-05-25T04:27:55.710Z,89.30
2018-05-25T04:30:24.207Z,89.20
2018-05-25T04:32:52.572Z,88.80
2018-05-25T04:35:20.938Z,88.10
2018-05-25T04:37:48.558Z,88.00
2018-05-25T04:40:16.155Z,87.30
2018-05-25T04:42:43.776Z,86.70
2018-05-25T04:45:11.393Z,86.90
2018-05-25T04:47:39.771Z,85.00
2018-05-25T04:50:08.142Z,84.50
2018-05-25T04:52:36.516Z,83.80
2018-05-25T04:55:04.894Z,83.50
2018-05-25T04:57:33.266Z,83.10
2018-05-25T05:00:00.995Z,83.10
2018-05-25T05:02:28.602Z,82.70
2018-05-25T05:04:57.018Z,81.40
2018-05-25T05:07:24.630Z,81.30
2018-05-25T05:09:52.995Z,81.00
2018-05-25T05:12:20.602Z,81.00
2018-05-25T05:14:48.213Z,81.00
2018-05-25T05:17:15.826Z,80.50
2018-05-25T05:19:43.427Z,80.30
2018-05-25T05:22:11.042Z,80.00
2018-05-25T05:24:38.643Z,78.80
2018-05-25T05:27:06.247Z,78.00
2018-05-25T05:29:33.854Z,77.20
2018-05-25T05:32:01.470Z,76.70
2018-05-25T05:34:29.094Z,76.80
2018-05-25T05:36:56.734Z,75.70
2018-05-25T05:39:24.338Z,75.30
2018-05-25T05:41:52.710Z,73.60
2018-05-25T05:44:21.082Z,72.20
2018-05-25T05:46:49.451Z,71.30
2018-05-25T05:49:17.070Z,71.30
2018-05-25T05:51:44.695Z,71.00
2018-05-25T05:54:13.065Z,69.60
2018-05-25T05:56:41.426Z,68.70
2018-05-25T05:59:09.075Z,68.60
2018-05-25T06:01:36.678Z,67.00
2018-05-25T06:04:04.282Z,66.00
2018-05-25T06:06:31.898Z,64.90
2018-05-25T06:08:59.498Z,64.00
2018-05-25T06:11:27.122Z,63.40
2018-05-25T06:13:54.726Z,61.40
2018-05-25T06:16:22.334Z,60.80
2018-05-25T06:18:49.954Z,59.60
2018-05-25T06:21:17.562Z,59.40
2018-05-25T06:23:45.159Z,59.80
2018-05-25T06:26:12.766Z,59.10
2018-05-25T06:28:40.376Z,59.20
2018-05-25T06:31:07.974Z,58.40
2018-05-25T06:33:36.374Z,57.30
2018-05-25T06:36:03.984Z,57.20
2018-05-25T06:38:31.662Z,56.60
2018-05-25T06:40:59.262Z,55.90
2018-05-25T06:43:26.898Z,56.10
2018-05-25T06:45:55.274Z,55.80
2018-05-25T06:48:23.634Z,55.60
2018-05-25T06:50:51.242Z,55.60
2018-05-25T06:53:18.850Z,55.20
2018-05-25T06:55:46.460Z,55.00
2018-05-25T06:58:14.078Z,54.50
2018-05-25T07:00:42.446Z,54.00
2018-05-25T07:03:10.064Z,53.90
2018-05-25T07:05:37.670Z,53.10
2018-05-25T07:08:06.046Z,51.40
2018-05-25T07:10:33.650Z,51.30
2018-05-25T07:13:01.333Z,50.80
2018-05-25T07:15:28.946Z,50.70
2018-05-25T07:17:57.314Z,49.20
2018-05-25T07:20:25.694Z,49.40
2018-05-25T07:22:54.067Z,48.30
2018-05-25T07:25:22.481Z,48.20
2018-05-25T07:27:50.091Z,48.20
2018-05-25T07:30:17.702Z,47.90
2018-05-25T07:32:45.306Z,47.10
2018-05-25T07:35:12.948Z,46.50
2018-05-25T07:37:40.543Z,45.40
2018-05-25T07:40:08.910Z,44.80
2018-05-25T07:42:37.347Z,44.70
2018-05-25T07:45:04.953Z,43.70
2018-05-25T07:47:32.579Z,43.10
2018-05-25T07:50:00.186Z,43.20
2018-05-25T07:52:28.558Z,42.90
2018-05-25T07:54:56.919Z,42.60
2018-05-25T07:57:24.526Z,42.50
2018-05-25T07:59:52.150Z,42.40
2018-05-25T08:02:20.518Z,41.00
2018-05-25T08:04:48.141Z,40.90
2018-05-25T08:07:15.742Z,41.30
2018-05-25T08:09:43.350Z,40.30
2018-05-25T08:12:10.960Z,40.20
2018-05-25T08:14:38.570Z,39.20
2018-05-25T08:17:06.170Z,39.10
2018-05-25T08:19:33.826Z,38.50
2018-05-25T08:22:01.482Z,38.50
2018-05-25T08:24:29.077Z,38.00
2018-05-25T08:26:57.450Z,36.90
2018-05-25T08:29:25.826Z,37.50
2018-05-25T08:31:54.207Z,35.30
2018-05-25T08:34:22.587Z,34.70
2018-05-25T08:36:50.967Z,35.40
2018-05-25T08:39:19.335Z,35.00
2018-05-25T08:41:47.707Z,33.10
2018-05-25T08:44:16.103Z,32.30
2018-05-25T08:46:44.487Z,32.00
2018-05-25T08:49:12.099Z,31.90
2018-05-25T08:51:39.699Z,31.60
2018-05-25T08:54:08.167Z,31.50
2018-05-25T08:56:36.549Z,32.00
2018-05-25T08:59:04.918Z,32.70
2018-05-25T09:01:33.302Z,31.90
2018-05-25T09:04:01.758Z,30.90
2018-05-25T09:06:29.378Z,30.20
2018-05-25T09:08:56.988Z,31.40
2018-05-25T09:11:24.646Z,30.90
2018-05-25T09:13:52.264Z,31.10
2018-05-25T09:16:19.879Z,31.10
2018-05-25T09:18:48.258Z,30.90
2018-05-25T09:21:16.634Z,29.90
2018-05-25T09:23:45.042Z,29.70
2018-05-25T09:26:12.654Z,29.70
2018-05-25T09:28:40.262Z,29.90
2018-05-25T09:31:07.887Z,29.50
2018-05-25T09:33:36.266Z,29.90
2018-05-25T09:36:04.642Z,30.60
2018-05-25T09:38:33.385Z,30.00
2018-05-25T09:41:00.994Z,30.00
2018-05-25T09:43:29.369Z,30.10
2018-05-25T09:45:57.762Z,30.50
2018-05-25T09:48:26.138Z,31.00
2018-05-25T09:50:54.500Z,30.00
2018-05-25T09:53:22.886Z,30.00
2018-05-25T09:55:51.262Z,31.30
2018-05-25T09:58:19.639Z,30.20
2018-05-25T10:00:48.002Z,31.80
2018-05-25T10:03:15.661Z,31.70
2018-05-25T10:05:43.250Z,31.30
2018-05-25T10:08:10.875Z,32.30
2018-05-25T10:10:38.493Z,33.10
2018-05-25T10:13:06.120Z,32.70
2018-05-25T10:15:34.486Z,31.40
2018-05-25T10:18:02.874Z,31.90
2018-05-25T10:20:31.250Z,32.70
2018-05-25T10:22:59.625Z,33.40
2018-05-25T10:25:27.998Z,33.60
2018-05-25T10:27:56.364Z,34.20
2018-05-25T10:30:23.984Z,34.20
2018-05-25T10:32:51.592Z,34.90
2018-05-25T10:35:19.203Z,36.60
2018-05-25T10:37:46.823Z,36.80
2018-05-25T10:40:15.214Z,37.40
2018-05-25T10:42:42.874Z,37.40
2018-05-25T10:45:11.235Z,37.10
2018-05-25T10:47:38.951Z,37.00
2018-05-25T10:50:06.551Z,37.90
2018-05-25T10:52:34.928Z,38.40
2018-05-25T10:55:03.355Z,38.00
2018-05-25T10:57:30.956Z,37.90
2018-05-25T10:59:58.566Z,38.00
2018-05-25T11:02:26.175Z,37.00
2018-05-25T11:04:53.786Z,37.20
2018-05-25T11:07:21.397Z,36.40
2018-05-25T11:09:49.047Z,36.70
2018-05-25T11:12:16.651Z,36.50
2018-05-25T11:14:44.338Z,36.60
2018-05-25T11:17:11.938Z,36.80
2018-05-25T11:19:39.566Z,36.40
2018-05-25T11:22:07.170Z,35.70
2018-05-25T11:24:35.536Z,35.60
2018-05-25T11:27:03.261Z,35.50
2018-05-25T11:29:30.895Z,36.30
2018-05-25T11:31:58.515Z,38.00
2018-05-25T11:34:26.139Z,36.50
2018-05-25T11:36:53.743Z,36.20
2018-05-25T11:39:22.121Z,34.90
2018-05-25T11:41:50.516Z,35.10
2018-05-25T11:44:18.122Z,35.00
2018-05-25T11:46:45.734Z,36.70
2018-05-25T11:49:14.114Z,37.50
2018-05-25T11:51:42.490Z,37.70
2018-05-25T11:54:10.879Z,38.20
2018-05-25T11:56:38.494Z,38.20
2018-05-25T11:59:06.106Z,36.80
2018-05-25T12:01:33.710Z,35.00
2018-05-25T12:04:01.321Z,34.00
2018-05-25T12:06:28.939Z,34.70
2018-05-25T12:08:56.538Z,33.70
2018-05-25T12:11:24.158Z,34.20
2018-05-25T12:13:51.774Z,34.00
2018-05-25T12:16:19.391Z,34.20
2018-05-25T12:18:47.780Z,34.70
2018-05-25T12:21:16.147Z,34.90
2018-05-25T12:23:44.523Z,34.00
2018-05-25T12:26:12.907Z,34.10
2018-05-25T12:28:41.294Z,33.70
2018-05-25T12:31:09.659Z,32.00
2018-05-25T12:33:38.052Z,32.40
2018-05-25T12:36:05.674Z,32.30
2018-05-25T12:38:33.286Z,32.10
2018-05-25T12:41:00.902Z,32.60
2018-05-25T12:43:28.527Z,32.90
2018-05-25T12:45:56.139Z,33.80
2018-05-25T12:48:24.518Z,33.40
2018-05-25T12:50:52.891Z,32.70
2018-05-25T12:53:21.268Z,32.30
2018-05-25T12:55:49.674Z,31.70
2018-05-25T12:58:17.318Z,31.60
2018-05-25T13:00:45.703Z,28.80
2018-05-25T13:03:13.358Z,28.80
2018-05-25T13:05:41.728Z,29.90
2018-05-25T13:08:10.093Z,29.10
2018-05-25T13:10:38.479Z,28.90
2018-05-25T13:13:06.856Z,28.00
2018-05-25T13:15:35.237Z,27.40
2018-05-25T13:18:03.618Z,27.10
2018-05-25T13:20:31.991Z,27.90
2018-05-25T13:23:00.358Z,29.20
2018-05-25T13:25:28.770Z,29.00
2018-05-25T13:27:56.378Z,28.90
2018-05-25T13:30:23.995Z,27.30
2018-05-25T13:32:51.625Z,26.20
2018-05-25T13:35:19.991Z,25.40
2018-05-25T13:37:47.610Z,25.30
2018-05-25T13:40:15.223Z,24.90
2018-05-25T13:42:43.608Z,23.70
2018-05-25T13:45:11.975Z,23.30
2018-05-25T13:47:40.350Z,23.50
2018-05-25T13:50:08.731Z,23.30
2018-05-25T13:52:37.099Z,23.80
2018-05-25T13:55:04.755Z,23.20
2018-05-25T13:57:32.365Z,22.90
2018-05-25T13:59:59.982Z,23.70
2018-05-25T14:02:28.359Z,24.30
2018-05-25T14:04:55.978Z,24.30
2018-05-25T14:07:23.598Z,23.60
2018-05-25T14:09:51.975Z,22.40
2018-05-25T14:12:20.356Z,21.20
2018-05-25T14:14:47.966Z,21.20
2018-05-25T14:17:15.645Z,21.50
2018-05-25T14:19:43.259Z,21.30
2018-05-25T14:22:10.859Z,21.20
2018-05-25T14:24:38.486Z,21.20
2018-05-25T14:27:06.087Z,21.50
2018-05-25T14:29:33.705Z,22.60
2018-05-25T14:32:01.320Z,23.20
2018-05-25T14:34:29.694Z,22.80
2018-05-25T14:36:58.066Z,22.50
2018-05-25T14:39:25.674Z,22.40
2018-05-25T14:41:53.302Z,22.60
2018-05-25T14:44:21.686Z,21.30
2018-05-25T14:46:49.308Z,21.20
2018-05-25T14:51:50.806Z,20.40
2018-05-25T14:54:19.174Z,21.60
2018-05-25T14:56:47.570Z,22.20
2018-05-25T14:59:15.190Z,22.20
2018-05-25T15:01:42.799Z,22.00
2018-05-25T15:04:10.399Z,21.80
2018-05-25T15:06:38.043Z,22.10
2018-05-25T15:09:05.675Z,21.80
2018-05-25T15:11:33.299Z,21.80
2018-05-25T15:14:01.025Z,22.60
2018-05-25T15:16:28.639Z,23.00
2018-05-25T15:18:57.043Z,23.30
2018-05-25T15:21:24.663Z,23.20
2018-05-25T15:23:52.280Z,23.60
2018-05-25T15:26:19.889Z,23.10
2018-05-25T15:28:48.297Z,23.60
2018-05-25T15:31:15.909Z,23.60
2018-05-25T15:33:43.542Z,23.70
2018-05-25T15:36:11.165Z,23.90
2018-05-25T15:38:38.771Z,24.10
2018-05-25T15:41:06.389Z,23.90
2018-05-25T15:43:34.007Z,24.00
2018-05-25T15:46:01.618Z,23.60
2018-05-25T15:48:29.226Z,23.00
2018-05-25T15:50:56.867Z,21.90
2018-05-25T15:53:24.483Z,22.30
2018-05-25T15:55:52.095Z,22.30
2018-05-25T15:58:19.728Z,22.30
2018-05-25T16:00:47.338Z,22.90
2018-05-25T16:03:14.959Z,22.40
2018-05-25T16:05:42.575Z,22.40
2018-05-25T16:08:11.322Z,23.50
2018-05-25T16:10:38.939Z,23.90
2018-05-25T16:13:06.574Z,24.40
2018-05-25T16:15:34.941Z,23.60
2018-05-25T16:18:02.553Z,23.90
2018-05-25T16:20:30.198Z,24.00
2018-05-25T16:22:57.807Z,24.20
2018-05-25T16:25:25.422Z,24.50
2018-05-25T16:27:53.039Z,24.40
2018-05-25T16:30:20.662Z,24.00
2018-05-25T16:32:49.054Z,24.20
2018-05-25T16:35:16.670Z,24.50
2018-05-25T16:37:44.315Z,24.70
2018-05-25T16:40:12.693Z,25.80
2018-05-25T16:42:40.329Z,25.70
2018-05-25T16:45:07.932Z,26.90
2018-05-25T16:47:35.572Z,27.30
2018-05-25T16:50:04.052Z,29.40
2018-05-25T16:52:31.627Z,29.40
2018-05-25T16:54:59.240Z,30.00
2018-05-25T16:57:26.854Z,30.00
2018-05-25T16:59:54.464Z,29.60
2018-05-25T17:02:22.070Z,31.50
2018-05-25T17:04:49.678Z,32.00
2018-05-25T17:07:17.275Z,32.50
2018-05-25T17:09:44.902Z,31.70
2018-05-25T17:12:12.533Z,31.00
2018-05-25T17:14:40.149Z,32.50
2018-05-25T17:17:08.523Z,33.90
2018-05-25T17:19:36.911Z,34.60
2018-05-25T17:22:05.294Z,34.60
2018-05-25T17:24:32.907Z,34.60
2018-05-25T17:27:00.571Z,34.60
2018-05-25T17:29:28.178Z,35.00
2018-05-25T17:31:55.779Z,35.00
2018-05-25T17:34:23.412Z,35.00
2018-05-25T17:36:51.014Z,35.70
2018-05-25T17:39:18.631Z,36.80
2018-05-25T17:41:46.244Z,36.30
2018-05-25T17:44:14.638Z,37.10
2018-05-25T17:46:43.038Z,38.50
2018-05-25T17:49:10.671Z,38.40
2018-05-25T17:51:39.053Z,40.00
2018-05-25T17:54:06.662Z,40.00
2018-05-25T17:56:34.267Z,41.00
2018-05-25T17:59:02.630Z,43.50
2018-05-25T18:01:30.242Z,43.50
2018-05-25T18:03:57.858Z,44.40
2018-05-25T18:06:26.235Z,46.10
2018-05-25T18:08:53.874Z,46.00
2018-05-25T18:11:21.482Z,46.80
2018-05-25T18:13:49.095Z,47.30
2018-05-25T18:16:16.718Z,47.80
2018-05-25T18:18:44.363Z,48.40
2018-05-25T18:21:11.974Z,49.30
2018-05-25T18:23:39.598Z,50.00
2018-05-25T18:26:07.207Z,50.60
2018-05-25T18:28:34.826Z,51.00
2018-05-25T18:31:02.443Z,52.40
2018-05-25T18:33:30.815Z,52.30
2018-05-25T18:35:59.203Z,52.70
2018-05-25T18:38:27.566Z,52.80
2018-05-25T18:40:55.963Z,53.20
2018-05-25T18:43:24.342Z,53.30
2018-05-25T18:45:52.743Z,53.60
2018-05-25T18:48:20.363Z,53.60
2018-05-25T18:50:48.727Z,54.20
2018-05-25T18:53:16.343Z,54.10
2018-05-25T18:55:43.967Z,54.20
2018-05-25T18:58:12.334Z,54.50
2018-05-25T19:00:40.711Z,54.80
2018-05-25T19:03:09.103Z,55.20
2018-05-25T19:05:37.477Z,55.50
2018-05-25T19:08:05.859Z,55.50
2018-05-25T19:10:34.266Z,55.40
2018-05-25T19:13:01.871Z,55.40
2018-05-25T19:15:29.471Z,55.60
2018-05-25T19:17:57.086Z,56.00
2018-05-25T19:20:24.690Z,56.30
2018-05-25T19:22:52.311Z,57.20
2018-05-25T19:25:19.918Z,56.50
2018-05-25T19:27:47.535Z,56.90
2018-05-25T19:30:15.143Z,57.20
2018-05-25T19:32:42.758Z,57.40
2018-05-25T19:35:11.143Z,57.80
2018-05-25T19:37:39.508Z,58.20
2018-05-25T19:40:07.133Z,58.10
2018-05-25T19:42:34.734Z,58.50
2018-05-25T19:45:03.129Z,59.40
2018-05-25T19:47:31.519Z,59.00
2018-05-25T19:49:59.134Z,59.00
2018-05-25T19:52:26.761Z,59.20
2018-05-25T19:54:54.390Z,59.50
2018-05-25T19:57:22.007Z,59.50
2018-05-25T19:59:51.114Z,59.30
2018-05-25T20:02:18.747Z,59.80
2018-05-25T20:04:46.358Z,60.30
2018-05-25T20:07:14.736Z,61.10
2018-05-25T20:09:43.137Z,61.50
2018-05-25T20:12:10.751Z,61.50
2018-05-25T20:14:38.362Z,62.20
2018-05-25T20:17:05.975Z,62.20
2018-05-25T20:19:33.589Z,62.50
2018-05-25T20:22:01.202Z,62.30
2018-05-25T20:24:29.578Z,62.20
2018-05-25T20:26:57.966Z,62.40
2018-05-25T20:29:26.334Z,62.50
2018-05-25T20:31:54.832Z,62.50
2018-05-25T20:34:22.446Z,62.50
2018-05-25T20:36:50.099Z,62.80
2018-05-25T20:39:17.712Z,63.50
2018-05-25T20:41:45.315Z,62.60
2018-05-25T20:44:12.931Z,62.90
2018-05-25T20:46:41.314Z,63.10
2018-05-25T20:49:08.929Z,63.10
2018-05-25T20:51:36.546Z,63.10
2018-05-25T20:54:04.182Z,63.10
2018-05-25T20:56:32.564Z,63.40
2018-05-25T20:59:00.167Z,63.20
2018-05-25T21:01:27.775Z,63.60
2018-05-25T21:03:56.140Z,63.70
2018-05-25T21:06:23.753Z,63.70
2018-05-25T21:08:51.380Z,63.70
2018-05-25T21:11:18.986Z,63.50
2018-05-25T21:13:46.595Z,63.40
2018-05-25T21:16:14.966Z,63.60
2018-05-25T21:18:43.345Z,63.70
2018-05-25T21:21:11.707Z,63.90
2018-05-25T21:23:39.379Z,63.90
2018-05-25T21:26:07.750Z,64.30
2018-05-25T21:28:36.114Z,64.80
2018-05-25T21:31:03.728Z,63.90
2018-05-25T21:33:31.330Z,63.90
2018-05-25T21:35:58.946Z,64.10
2018-05-25T21:38:26.605Z,64.30
2018-05-25T21:40:54.210Z,64.60
2018-05-25T21:43:21.807Z,64.90
2018-05-25T21:45:50.178Z,64.80
2018-05-25T21:48:18.550Z,65.10
2018-05-25T21:50:46.910Z,65.60
2018-05-25T21:53:14.660Z,65.50
2018-05-25T21:55:42.255Z,65.90
2018-05-25T21:58:10.655Z,66.30
2018-05-25T22:00:38.306Z,66.30
2018-05-25T22:03:05.907Z,66.40
2018-05-25T22:05:33.511Z,66.40
2018-05-25T22:08:01.906Z,66.40
2018-05-25T22:10:29.522Z,66.40
2018-05-25T22:12:57.124Z,66.60
2018-05-25T22:15:24.783Z,66.00
2018-05-25T22:17:52.391Z,66.90
2018-05-25T22:20:19.998Z,66.90
2018-05-25T22:22:48.382Z,67.40
2018-05-25T22:25:15.990Z,67.30
2018-05-25T22:27:43.624Z,67.80
2018-05-25T22:30:11.235Z,67.70
2018-05-25T22:32:39.645Z,68.30
2018-05-25T22:35:07.246Z,68.20
2018-05-25T22:37:34.869Z,68.60
2018-05-25T22:40:02.471Z,68.80
2018-05-25T22:42:41.999Z,69.00
2018-05-25T22:45:21.373Z,69.30
2018-05-25T22:48:01.560Z,69.70
2018-05-25T22:50:40.918Z,69.60
2018-05-25T22:53:13.582Z,69.30
2018-05-25T22:55:41.186Z,70.30
2018-05-25T22:58:08.815Z,70.50
2018-05-25T23:00:36.438Z,70.80
2018-05-25T23:03:04.035Z,71.20
2018-05-25T23:05:31.650Z,71.50
2018-05-25T23:08:00.033Z,72.90
2018-05-25T23:10:27.639Z,72.00
2018-05-25T23:12:55.262Z,72.20
2018-05-25T23:15:22.915Z,72.40
2018-05-25T23:17:50.514Z,72.10
2018-05-25T23:20:18.138Z,71.80
2018-05-25T23:22:45.752Z,71.70
2018-05-25T23:25:13.356Z,71.70
2018-05-25T23:27:40.973Z,71.50
2018-05-25T23:30:08.577Z,71.50
2018-05-25T23:32:36.178Z,71.70
2018-05-25T23:35:03.795Z,71.80
2018-05-25T23:37:31.406Z,71.60
2018-05-25T23:39:59.026Z,71.50
2018-05-25T23:42:26.627Z,71.40
2018-05-25T23:44:54.267Z,71.20
2018-05-25T23:47:21.862Z,71.10
2018-05-25T23:49:49.469Z,71.00
2018-05-25T23:52:17.092Z,70.80
2018-05-25T23:54:45.450Z,70.80
2018-05-25T23:57:13.071Z,70.80
2018-05-25T23:59:40.682Z,70.60
